sensor_id;sensor_type;location;lat;lon;timestamp;P1;durP1;ratioP1;P2;durP2;ratioP2
7905;SDS011;13291;40.472;-3.878;2023-06-26T00:00:01;3.80;;;2.40;;
7905;SDS011;13291;40.472;-3.878;2023-06-26T00:02:30;3.60;;;2.80;;
7905;SDS011;13291;40.472;-3.878;2023-06-26T00:04:58;2.63;;;2.37;;
7905;SDS011;13291;40.472;-3.878;2023-06-26T00:07:27;4.13;;;2.97;;
7905;SDS011;13291;40.472;-3.878;2023-06-26T00:09:54;3.37;;;2.50;;
7905;SDS011;13291;40.472;-3.878;2023-06-26T00:12:21;3.40;;;2.50;;
7905;SDS011;13291;40.472;-3.878;2023-06-26T00:14:50;4.77;;;2.23;;
7905;SDS011;13291;40.472;-3.878;2023-06-26T00:17:16;3.97;;;2.50;;
7905;SDS011;13291;40.472;-3.878;2023-06-26T00:19:44;4.33;;;2.27;;
7905;SDS011;13291;40.472;-3.878;2023-06-26T00:22:11;2.60;;;2.40;;
7905;SDS011;13291;40.472;-3.878;2023-06-26T00:24:38;3.07;;;2.23;;
7905;SDS011;13291;40.472;-3.878;2023-06-26T00:27:05;3.27;;;2.50;;
7905;SDS011;13291;40.472;-3.878;2023-06-26T00:29:32;3.40;;;2.43;;
7905;SDS011;13291;40.472;-3.878;2023-06-26T00:32:00;5.27;;;2.40;;
7905;SDS011;13291;40.472;-3.878;2023-06-26T00:34:27;3.47;;;2.73;;
7905;SDS011;13291;40.472;-3.878;2023-06-26T00:36:54;5.70;;;2.70;;
7905;SDS011;13291;40.472;-3.878;2023-06-26T00:39:21;5.83;;;2.47;;
7905;SDS011;13291;40.472;-3.878;2023-06-26T00:41:50;2.90;;;2.60;;
7905;SDS011;13291;40.472;-3.878;2023-06-26T00:44:18;3.30;;;2.80;;
7905;SDS011;13291;40.472;-3.878;2023-06-26T00:46:45;3.30;;;2.40;;
7905;SDS011;13291;40.472;-3.878;2023-06-26T00:49:13;4.37;;;2.60;;
7905;SDS011;13291;40.472;-3.878;2023-06-26T00:51:41;4.63;;;2.53;;
7905;SDS011;13291;40.472;-3.878;2023-06-26T00:54:08;4.83;;;2.40;;
7905;SDS011;13291;40.472;-3.878;2023-06-26T00:56:35;4.33;;;2.50;;
7905;SDS011;13291;40.472;-3.878;2023-06-26T00:59:02;4.30;;;2.70;;
7905;SDS011;13291;40.472;-3.878;2023-06-26T01:01:29;4.03;;;2.67;;
7905;SDS011;13291;40.472;-3.878;2023-06-26T01:03:56;2.97;;;2.50;;
7905;SDS011;13291;40.472;-3.878;2023-06-26T01:06:24;3.10;;;2.40;;
7905;SDS011;13291;40.472;-3.878;2023-06-26T01:08:54;4.20;;;2.80;;
7905;SDS011;13291;40.472;-3.878;2023-06-26T01:11:22;2.97;;;2.60;;
7905;SDS011;13291;40.472;-3.878;2023-06-26T01:13:48;3.40;;;2.70;;
7905;SDS011;13291;40.472;-3.878;2023-06-26T01:16:17;2.90;;;2.17;;
7905;SDS011;13291;40.472;-3.878;2023-06-26T01:18:45;3.73;;;2.40;;
7905;SDS011;13291;40.472;-3.878;2023-06-26T01:21:14;2.60;;;2.00;;
7905;SDS011;13291;40.472;-3.878;2023-06-26T01:23:46;3.80;;;2.70;;
7905;SDS011;13291;40.472;-3.878;2023-06-26T01:26:26;3.17;;;2.40;;
7905;SDS011;13291;40.472;-3.878;2023-06-26T01:28:56;2.40;;;2.20;;
7905;SDS011;13291;40.472;-3.878;2023-06-26T01:31:25;2.90;;;1.83;;
7905;SDS011;13291;40.472;-3.878;2023-06-26T01:33:53;2.43;;;2.00;;
7905;SDS011;13291;40.472;-3.878;2023-06-26T01:36:21;2.10;;;1.80;;
7905;SDS011;13291;40.472;-3.878;2023-06-26T01:38:48;3.50;;;2.30;;
7905;SDS011;13291;40.472;-3.878;2023-06-26T01:41:16;3.13;;;2.30;;
7905;SDS011;13291;40.472;-3.878;2023-06-26T01:43:50;3.13;;;2.13;;
7905;SDS011;13291;40.472;-3.878;2023-06-26T01:46:29;5.23;;;1.90;;
7905;SDS011;13291;40.472;-3.878;2023-06-26T01:49:05;2.30;;;1.90;;
7905;SDS011;13291;40.472;-3.878;2023-06-26T01:51:37;2.70;;;1.93;;
7905;SDS011;13291;40.472;-3.878;2023-06-26T01:54:08;2.73;;;1.83;;
7905;SDS011;13291;40.472;-3.878;2023-06-26T01:56:40;2.93;;;2.00;;
7905;SDS011;13291;40.472;-3.878;2023-06-26T01:59:10;2.37;;;1.97;;
7905;SDS011;13291;40.472;-3.878;2023-06-26T02:01:39;2.10;;;1.77;;
7905;SDS011;13291;40.472;-3.878;2023-06-26T02:04:06;2.60;;;2.00;;
7905;SDS011;13291;40.472;-3.878;2023-06-26T02:06:33;2.47;;;2.23;;
7905;SDS011;13291;40.472;-3.878;2023-06-26T02:09:00;3.10;;;1.73;;
7905;SDS011;13291;40.472;-3.878;2023-06-26T02:11:27;2.50;;;1.93;;
7905;SDS011;13291;40.472;-3.878;2023-06-26T02:13:54;2.37;;;2.03;;
7905;SDS011;13291;40.472;-3.878;2023-06-26T02:16:22;2.70;;;1.83;;
7905;SDS011;13291;40.472;-3.878;2023-06-26T02:18:49;4.37;;;2.10;;
7905;SDS011;13291;40.472;-3.878;2023-06-26T02:21:16;2.43;;;2.00;;
7905;SDS011;13291;40.472;-3.878;2023-06-26T02:23:43;3.40;;;1.90;;
7905;SDS011;13291;40.472;-3.878;2023-06-26T02:26:10;2.47;;;2.10;;
7905;SDS011;13291;40.472;-3.878;2023-06-26T02:28:36;2.93;;;1.83;;
7905;SDS011;13291;40.472;-3.878;2023-06-26T02:31:03;2.87;;;1.80;;
7905;SDS011;13291;40.472;-3.878;2023-06-26T02:33:32;4.07;;;1.83;;
7905;SDS011;13291;40.472;-3.878;2023-06-26T02:35:59;2.20;;;2.00;;
7905;SDS011;13291;40.472;-3.878;2023-06-26T02:38:26;2.23;;;2.00;;
7905;SDS011;13291;40.472;-3.878;2023-06-26T02:40:53;2.30;;;2.07;;
7905;SDS011;13291;40.472;-3.878;2023-06-26T02:43:19;3.00;;;1.90;;
7905;SDS011;13291;40.472;-3.878;2023-06-26T02:45:46;3.00;;;2.10;;
7905;SDS011;13291;40.472;-3.878;2023-06-26T02:48:13;2.23;;;2.03;;
7905;SDS011;13291;40.472;-3.878;2023-06-26T02:50:42;3.73;;;2.20;;
7905;SDS011;13291;40.472;-3.878;2023-06-26T02:53:11;2.63;;;2.27;;
7905;SDS011;13291;40.472;-3.878;2023-06-26T02:55:38;2.50;;;2.30;;
7905;SDS011;13291;40.472;-3.878;2023-06-26T02:58:05;3.47;;;2.23;;
7905;SDS011;13291;40.472;-3.878;2023-06-26T03:00:31;5.03;;;3.20;;
7905;SDS011;13291;40.472;-3.878;2023-06-26T03:02:58;2.93;;;2.67;;
7905;SDS011;13291;40.472;-3.878;2023-06-26T03:05:25;5.43;;;3.00;;
7905;SDS011;13291;40.472;-3.878;2023-06-26T03:07:54;6.40;;;3.57;;
7905;SDS011;13291;40.472;-3.878;2023-06-26T03:10:21;5.77;;;2.77;;
7905;SDS011;13291;40.472;-3.878;2023-06-26T03:12:48;5.40;;;3.27;;
7905;SDS011;13291;40.472;-3.878;2023-06-26T03:15:15;6.63;;;3.53;;
7905;SDS011;13291;40.472;-3.878;2023-06-26T03:17:42;5.70;;;3.47;;
7905;SDS011;13291;40.472;-3.878;2023-06-26T03:20:09;5.07;;;3.00;;
7905;SDS011;13291;40.472;-3.878;2023-06-26T03:22:36;3.60;;;2.97;;
7905;SDS011;13291;40.472;-3.878;2023-06-26T03:25:05;3.97;;;2.60;;
7905;SDS011;13291;40.472;-3.878;2023-06-26T03:27:33;3.50;;;3.03;;
7905;SDS011;13291;40.472;-3.878;2023-06-26T03:30:00;5.73;;;2.80;;
7905;SDS011;13291;40.472;-3.878;2023-06-26T03:32:26;4.87;;;3.23;;
7905;SDS011;13291;40.472;-3.878;2023-06-26T03:34:53;4.30;;;2.93;;
7905;SDS011;13291;40.472;-3.878;2023-06-26T03:37:20;3.80;;;3.10;;
7905;SDS011;13291;40.472;-3.878;2023-06-26T03:39:47;4.60;;;3.20;;
7905;SDS011;13291;40.472;-3.878;2023-06-26T03:42:15;3.40;;;2.77;;
7905;SDS011;13291;40.472;-3.878;2023-06-26T03:44:42;4.40;;;2.90;;
7905;SDS011;13291;40.472;-3.878;2023-06-26T03:47:09;5.93;;;3.50;;
7905;SDS011;13291;40.472;-3.878;2023-06-26T03:49:36;5.37;;;3.53;;
7905;SDS011;13291;40.472;-3.878;2023-06-26T03:52:03;4.50;;;3.50;;
7905;SDS011;13291;40.472;-3.878;2023-06-26T03:54:30;7.23;;;3.90;;
7905;SDS011;13291;40.472;-3.878;2023-06-26T03:56:59;5.93;;;3.97;;
7905;SDS011;13291;40.472;-3.878;2023-06-26T03:59:27;6.60;;;4.10;;
7905;SDS011;13291;40.472;-3.878;2023-06-26T04:01:54;3.43;;;3.10;;
7905;SDS011;13291;40.472;-3.878;2023-06-26T04:04:21;8.23;;;3.30;;
7905;SDS011;13291;40.472;-3.878;2023-06-26T04:06:48;4.40;;;3.77;;
7905;SDS011;13291;40.472;-3.878;2023-06-26T04:09:15;4.37;;;3.00;;
7905;SDS011;13291;40.472;-3.878;2023-06-26T04:11:43;3.27;;;2.97;;
7905;SDS011;13291;40.472;-3.878;2023-06-26T04:14:10;4.23;;;3.07;;
7905;SDS011;13291;40.472;-3.878;2023-06-26T04:16:39;6.87;;;3.20;;
7905;SDS011;13291;40.472;-3.878;2023-06-26T04:19:06;4.63;;;3.60;;
7905;SDS011;13291;40.472;-3.878;2023-06-26T04:21:35;4.97;;;3.30;;
7905;SDS011;13291;40.472;-3.878;2023-06-26T04:24:02;5.10;;;3.40;;
7905;SDS011;13291;40.472;-3.878;2023-06-26T04:26:29;4.03;;;3.17;;
7905;SDS011;13291;40.472;-3.878;2023-06-26T04:28:56;4.57;;;3.13;;
7905;SDS011;13291;40.472;-3.878;2023-06-26T04:31:22;5.20;;;3.67;;
7905;SDS011;13291;40.472;-3.878;2023-06-26T04:33:51;3.27;;;2.97;;
7905;SDS011;13291;40.472;-3.878;2023-06-26T04:36:19;4.00;;;3.37;;
7905;SDS011;13291;40.472;-3.878;2023-06-26T04:38:47;3.90;;;3.27;;
7905;SDS011;13291;40.472;-3.878;2023-06-26T04:41:14;4.93;;;3.40;;
7905;SDS011;13291;40.472;-3.878;2023-06-26T04:43:41;4.77;;;3.57;;
7905;SDS011;13291;40.472;-3.878;2023-06-26T04:46:08;6.40;;;3.13;;
7905;SDS011;13291;40.472;-3.878;2023-06-26T04:48:34;5.10;;;2.97;;
7905;SDS011;13291;40.472;-3.878;2023-06-26T04:51:03;3.23;;;2.93;;
7905;SDS011;13291;40.472;-3.878;2023-06-26T04:53:30;4.10;;;2.90;;
7905;SDS011;13291;40.472;-3.878;2023-06-26T04:55:57;2.77;;;2.33;;
7905;SDS011;13291;40.472;-3.878;2023-06-26T04:58:24;4.60;;;2.93;;
7905;SDS011;13291;40.472;-3.878;2023-06-26T05:00:51;4.80;;;2.80;;
7905;SDS011;13291;40.472;-3.878;2023-06-26T05:03:17;5.00;;;2.63;;
7905;SDS011;13291;40.472;-3.878;2023-06-26T05:05:45;2.63;;;2.40;;
7905;SDS011;13291;40.472;-3.878;2023-06-26T05:08:17;3.80;;;2.47;;
7905;SDS011;13291;40.472;-3.878;2023-06-26T05:10:45;3.57;;;2.80;;
7905;SDS011;13291;40.472;-3.878;2023-06-26T05:13:12;3.60;;;2.40;;
7905;SDS011;13291;40.472;-3.878;2023-06-26T05:15:40;4.23;;;2.73;;
7905;SDS011;13291;40.472;-3.878;2023-06-26T05:18:07;5.70;;;2.60;;
7905;SDS011;13291;40.472;-3.878;2023-06-26T05:20:34;4.13;;;2.47;;
7905;SDS011;13291;40.472;-3.878;2023-06-26T05:23:01;2.93;;;2.40;;
7905;SDS011;13291;40.472;-3.878;2023-06-26T05:25:31;3.37;;;2.30;;
7905;SDS011;13291;40.472;-3.878;2023-06-26T05:27:59;3.90;;;2.67;;
7905;SDS011;13291;40.472;-3.878;2023-06-26T05:30:30;4.27;;;3.10;;
7905;SDS011;13291;40.472;-3.878;2023-06-26T05:32:59;5.10;;;2.80;;
7905;SDS011;13291;40.472;-3.878;2023-06-26T05:35:27;4.07;;;2.40;;
7905;SDS011;13291;40.472;-3.878;2023-06-26T05:37:56;4.50;;;2.47;;
7905;SDS011;13291;40.472;-3.878;2023-06-26T05:40:24;3.83;;;2.03;;
7905;SDS011;13291;40.472;-3.878;2023-06-26T05:42:53;2.73;;;2.30;;
7905;SDS011;13291;40.472;-3.878;2023-06-26T05:45:21;2.80;;;2.60;;
7905;SDS011;13291;40.472;-3.878;2023-06-26T05:47:48;2.83;;;2.13;;
7905;SDS011;13291;40.472;-3.878;2023-06-26T05:50:16;3.60;;;2.57;;
7905;SDS011;13291;40.472;-3.878;2023-06-26T05:52:45;5.03;;;2.57;;
7905;SDS011;13291;40.472;-3.878;2023-06-26T05:55:13;4.20;;;2.47;;
7905;SDS011;13291;40.472;-3.878;2023-06-26T05:57:40;6.03;;;2.50;;
7905;SDS011;13291;40.472;-3.878;2023-06-26T06:00:09;4.37;;;2.83;;
7905;SDS011;13291;40.472;-3.878;2023-06-26T06:02:37;3.30;;;2.70;;
7905;SDS011;13291;40.472;-3.878;2023-06-26T06:05:04;4.00;;;2.60;;
7905;SDS011;13291;40.472;-3.878;2023-06-26T06:07:32;5.17;;;2.87;;
7905;SDS011;13291;40.472;-3.878;2023-06-26T06:09:59;3.90;;;2.53;;
7905;SDS011;13291;40.472;-3.878;2023-06-26T06:12:26;4.90;;;3.10;;
7905;SDS011;13291;40.472;-3.878;2023-06-26T06:14:53;4.93;;;3.10;;
7905;SDS011;13291;40.472;-3.878;2023-06-26T06:17:21;5.43;;;2.40;;
7905;SDS011;13291;40.472;-3.878;2023-06-26T06:19:49;6.33;;;2.53;;
7905;SDS011;13291;40.472;-3.878;2023-06-26T06:22:16;4.40;;;2.37;;
7905;SDS011;13291;40.472;-3.878;2023-06-26T06:24:42;4.47;;;2.60;;
7905;SDS011;13291;40.472;-3.878;2023-06-26T06:27:10;4.70;;;2.50;;
7905;SDS011;13291;40.472;-3.878;2023-06-26T06:29:37;4.70;;;2.37;;
7905;SDS011;13291;40.472;-3.878;2023-06-26T06:32:04;4.37;;;2.90;;
7905;SDS011;13291;40.472;-3.878;2023-06-26T06:34:32;9.13;;;2.80;;
7905;SDS011;13291;40.472;-3.878;2023-06-26T06:36:59;2.80;;;2.20;;
7905;SDS011;13291;40.472;-3.878;2023-06-26T06:39:26;3.10;;;2.63;;
7905;SDS011;13291;40.472;-3.878;2023-06-26T06:41:53;4.13;;;2.60;;
7905;SDS011;13291;40.472;-3.878;2023-06-26T06:44:20;4.17;;;2.60;;
7905;SDS011;13291;40.472;-3.878;2023-06-26T06:46:47;4.17;;;2.87;;
7905;SDS011;13291;40.472;-3.878;2023-06-26T06:49:14;3.27;;;2.20;;
7905;SDS011;13291;40.472;-3.878;2023-06-26T06:51:42;3.63;;;2.87;;
7905;SDS011;13291;40.472;-3.878;2023-06-26T06:54:09;2.50;;;2.30;;
7905;SDS011;13291;40.472;-3.878;2023-06-26T06:56:36;5.67;;;2.73;;
7905;SDS011;13291;40.472;-3.878;2023-06-26T06:59:03;3.43;;;2.37;;
7905;SDS011;13291;40.472;-3.878;2023-06-26T07:01:29;2.30;;;2.00;;
7905;SDS011;13291;40.472;-3.878;2023-06-26T07:03:56;3.90;;;2.40;;
7905;SDS011;13291;40.472;-3.878;2023-06-26T07:06:23;4.90;;;2.50;;
7905;SDS011;13291;40.472;-3.878;2023-06-26T07:08:52;4.70;;;3.00;;
7905;SDS011;13291;40.472;-3.878;2023-06-26T07:11:18;3.10;;;2.00;;
7905;SDS011;13291;40.472;-3.878;2023-06-26T07:13:45;5.93;;;2.30;;
7905;SDS011;13291;40.472;-3.878;2023-06-26T07:16:12;4.17;;;2.77;;
7905;SDS011;13291;40.472;-3.878;2023-06-26T07:18:40;4.53;;;2.50;;
7905;SDS011;13291;40.472;-3.878;2023-06-26T07:21:07;4.00;;;2.23;;
7905;SDS011;13291;40.472;-3.878;2023-06-26T07:23:34;5.80;;;2.77;;
7905;SDS011;13291;40.472;-3.878;2023-06-26T07:26:03;2.73;;;2.40;;
7905;SDS011;13291;40.472;-3.878;2023-06-26T07:28:29;4.80;;;2.23;;
7905;SDS011;13291;40.472;-3.878;2023-06-26T07:30:56;5.83;;;2.27;;
7905;SDS011;13291;40.472;-3.878;2023-06-26T07:33:23;5.90;;;2.93;;
7905;SDS011;13291;40.472;-3.878;2023-06-26T07:35:50;2.87;;;2.40;;
7905;SDS011;13291;40.472;-3.878;2023-06-26T07:38:18;3.80;;;2.40;;
7905;SDS011;13291;40.472;-3.878;2023-06-26T07:40:45;3.03;;;2.20;;
7905;SDS011;13291;40.472;-3.878;2023-06-26T07:43:13;3.50;;;2.57;;
7905;SDS011;13291;40.472;-3.878;2023-06-26T07:45:40;4.33;;;2.27;;
7905;SDS011;13291;40.472;-3.878;2023-06-26T07:48:08;3.20;;;2.30;;
7905;SDS011;13291;40.472;-3.878;2023-06-26T07:50:35;4.50;;;2.50;;
7905;SDS011;13291;40.472;-3.878;2023-06-26T07:53:02;3.60;;;2.63;;
7905;SDS011;13291;40.472;-3.878;2023-06-26T07:55:30;3.90;;;2.70;;
7905;SDS011;13291;40.472;-3.878;2023-06-26T07:57:57;7.77;;;2.70;;
7905;SDS011;13291;40.472;-3.878;2023-06-26T08:00:25;4.30;;;2.53;;
7905;SDS011;13291;40.472;-3.878;2023-06-26T08:02:53;5.23;;;3.00;;
7905;SDS011;13291;40.472;-3.878;2023-06-26T08:05:19;3.60;;;2.73;;
7905;SDS011;13291;40.472;-3.878;2023-06-26T08:07:46;5.23;;;2.90;;
7905;SDS011;13291;40.472;-3.878;2023-06-26T08:10:13;3.80;;;2.80;;
7905;SDS011;13291;40.472;-3.878;2023-06-26T08:12:40;4.70;;;2.43;;
7905;SDS011;13291;40.472;-3.878;2023-06-26T08:15:10;6.77;;;3.10;;
7905;SDS011;13291;40.472;-3.878;2023-06-26T08:17:38;5.10;;;2.97;;
7905;SDS011;13291;40.472;-3.878;2023-06-26T08:20:05;5.50;;;3.27;;
7905;SDS011;13291;40.472;-3.878;2023-06-26T08:22:34;4.30;;;3.00;;
7905;SDS011;13291;40.472;-3.878;2023-06-26T08:25:01;3.97;;;2.70;;
7905;SDS011;13291;40.472;-3.878;2023-06-26T08:27:29;4.20;;;3.00;;
7905;SDS011;13291;40.472;-3.878;2023-06-26T08:29:56;4.20;;;2.90;;
7905;SDS011;13291;40.472;-3.878;2023-06-26T08:32:23;5.30;;;2.50;;
7905;SDS011;13291;40.472;-3.878;2023-06-26T08:34:52;3.97;;;3.10;;
7905;SDS011;13291;40.472;-3.878;2023-06-26T08:37:18;5.27;;;2.87;;
7905;SDS011;13291;40.472;-3.878;2023-06-26T08:39:46;5.87;;;3.03;;
7905;SDS011;13291;40.472;-3.878;2023-06-26T08:42:12;6.80;;;2.90;;
7905;SDS011;13291;40.472;-3.878;2023-06-26T08:44:39;4.27;;;3.17;;
7905;SDS011;13291;40.472;-3.878;2023-06-26T08:47:06;3.40;;;2.50;;
7905;SDS011;13291;40.472;-3.878;2023-06-26T08:49:35;3.53;;;2.50;;
7905;SDS011;13291;40.472;-3.878;2023-06-26T08:52:13;3.60;;;2.60;;
7905;SDS011;13291;40.472;-3.878;2023-06-26T08:54:45;2.60;;;2.40;;
7905;SDS011;13291;40.472;-3.878;2023-06-26T08:57:14;3.40;;;2.70;;
7905;SDS011;13291;40.472;-3.878;2023-06-26T08:59:44;2.70;;;2.50;;
7905;SDS011;13291;40.472;-3.878;2023-06-26T09:02:12;4.90;;;3.03;;
7905;SDS011;13291;40.472;-3.878;2023-06-26T09:04:39;12.70;;;3.03;;
7905;SDS011;13291;40.472;-3.878;2023-06-26T09:07:07;9.60;;;3.00;;
7905;SDS011;13291;40.472;-3.878;2023-06-26T09:09:35;5.70;;;2.60;;
7905;SDS011;13291;40.472;-3.878;2023-06-26T09:12:03;6.80;;;3.13;;
7905;SDS011;13291;40.472;-3.878;2023-06-26T09:14:30;3.80;;;2.70;;
7905;SDS011;13291;40.472;-3.878;2023-06-26T09:16:57;5.30;;;4.10;;
7905;SDS011;13291;40.472;-3.878;2023-06-26T09:19:24;5.30;;;2.80;;
7905;SDS011;13291;40.472;-3.878;2023-06-26T09:21:52;5.20;;;3.33;;
7905;SDS011;13291;40.472;-3.878;2023-06-26T09:24:19;3.20;;;2.73;;
7905;SDS011;13291;40.472;-3.878;2023-06-26T09:26:49;4.13;;;3.37;;
7905;SDS011;13291;40.472;-3.878;2023-06-26T09:29:17;3.00;;;2.60;;
7905;SDS011;13291;40.472;-3.878;2023-06-26T09:31:44;3.50;;;2.60;;
7905;SDS011;13291;40.472;-3.878;2023-06-26T09:34:11;5.03;;;2.70;;
7905;SDS011;13291;40.472;-3.878;2023-06-26T09:36:38;3.23;;;2.20;;
7905;SDS011;13291;40.472;-3.878;2023-06-26T09:39:07;5.90;;;2.93;;
7905;SDS011;13291;40.472;-3.878;2023-06-26T09:41:36;3.17;;;2.50;;
7905;SDS011;13291;40.472;-3.878;2023-06-26T09:44:05;8.50;;;3.43;;
7905;SDS011;13291;40.472;-3.878;2023-06-26T09:46:33;4.80;;;3.03;;
7905;SDS011;13291;40.472;-3.878;2023-06-26T09:49:03;4.70;;;3.23;;
7905;SDS011;13291;40.472;-3.878;2023-06-26T09:51:31;4.97;;;3.00;;
7905;SDS011;13291;40.472;-3.878;2023-06-26T09:53:59;5.47;;;3.13;;
7905;SDS011;13291;40.472;-3.878;2023-06-26T09:56:26;4.37;;;3.17;;
7905;SDS011;13291;40.472;-3.878;2023-06-26T09:58:54;4.50;;;2.97;;
7905;SDS011;13291;40.472;-3.878;2023-06-26T10:01:23;3.60;;;3.30;;
7905;SDS011;13291;40.472;-3.878;2023-06-26T10:03:50;6.60;;;3.13;;
7905;SDS011;13291;40.472;-3.878;2023-06-26T10:06:18;4.13;;;3.20;;
7905;SDS011;13291;40.472;-3.878;2023-06-26T10:08:48;6.83;;;3.23;;
7905;SDS011;13291;40.472;-3.878;2023-06-26T10:11:18;4.80;;;3.40;;
7905;SDS011;13291;40.472;-3.878;2023-06-26T10:13:47;6.70;;;3.47;;
7905;SDS011;13291;40.472;-3.878;2023-06-26T10:16:18;6.80;;;3.47;;
7905;SDS011;13291;40.472;-3.878;2023-06-26T10:18:50;5.90;;;3.47;;
7905;SDS011;13291;40.472;-3.878;2023-06-26T10:21:19;6.40;;;3.50;;
7905;SDS011;13291;40.472;-3.878;2023-06-26T10:23:49;6.47;;;3.10;;
7905;SDS011;13291;40.472;-3.878;2023-06-26T10:26:17;3.33;;;3.03;;
7905;SDS011;13291;40.472;-3.878;2023-06-26T10:28:47;3.80;;;3.13;;
7905;SDS011;13291;40.472;-3.878;2023-06-26T10:31:18;6.57;;;3.30;;
7905;SDS011;13291;40.472;-3.878;2023-06-26T10:33:47;5.47;;;3.20;;
7905;SDS011;13291;40.472;-3.878;2023-06-26T10:36:16;4.00;;;3.10;;
7905;SDS011;13291;40.472;-3.878;2023-06-26T10:38:51;4.03;;;2.80;;
7905;SDS011;13291;40.472;-3.878;2023-06-26T10:41:19;5.10;;;3.50;;
7905;SDS011;13291;40.472;-3.878;2023-06-26T10:43:51;4.10;;;3.60;;
7905;SDS011;13291;40.472;-3.878;2023-06-26T10:46:32;4.80;;;3.27;;
7905;SDS011;13291;40.472;-3.878;2023-06-26T10:49:03;3.80;;;3.30;;
7905;SDS011;13291;40.472;-3.878;2023-06-26T10:51:30;4.40;;;3.00;;
7905;SDS011;13291;40.472;-3.878;2023-06-26T10:53:57;5.63;;;3.40;;
7905;SDS011;13291;40.472;-3.878;2023-06-26T10:56:40;4.83;;;3.67;;
7905;SDS011;13291;40.472;-3.878;2023-06-26T10:59:13;6.20;;;3.27;;
7905;SDS011;13291;40.472;-3.878;2023-06-26T11:01:42;5.70;;;3.53;;
7905;SDS011;13291;40.472;-3.878;2023-06-26T11:04:12;5.37;;;3.50;;
7905;SDS011;13291;40.472;-3.878;2023-06-26T11:06:44;5.03;;;3.47;;
7905;SDS011;13291;40.472;-3.878;2023-06-26T11:09:13;5.83;;;3.70;;
7905;SDS011;13291;40.472;-3.878;2023-06-26T11:11:57;6.10;;;3.50;;
7905;SDS011;13291;40.472;-3.878;2023-06-26T11:14:27;4.93;;;4.10;;
7905;SDS011;13291;40.472;-3.878;2023-06-26T11:16:55;5.03;;;3.77;;
7905;SDS011;13291;40.472;-3.878;2023-06-26T11:19:24;6.93;;;3.40;;
7905;SDS011;13291;40.472;-3.878;2023-06-26T11:21:52;5.77;;;4.00;;
7905;SDS011;13291;40.472;-3.878;2023-06-26T11:24:24;5.83;;;3.70;;
7905;SDS011;13291;40.472;-3.878;2023-06-26T11:26:51;8.50;;;3.90;;
7905;SDS011;13291;40.472;-3.878;2023-06-26T11:29:19;7.00;;;3.97;;
7905;SDS011;13291;40.472;-3.878;2023-06-26T11:31:45;7.13;;;4.30;;
7905;SDS011;13291;40.472;-3.878;2023-06-26T11:34:12;7.87;;;3.80;;
7905;SDS011;13291;40.472;-3.878;2023-06-26T11:36:42;5.57;;;3.87;;
7905;SDS011;13291;40.472;-3.878;2023-06-26T11:39:11;4.40;;;3.90;;
7905;SDS011;13291;40.472;-3.878;2023-06-26T11:41:39;6.07;;;4.20;;
7905;SDS011;13291;40.472;-3.878;2023-06-26T11:44:07;5.20;;;4.33;;
7905;SDS011;13291;40.472;-3.878;2023-06-26T11:46:35;4.00;;;3.37;;
7905;SDS011;13291;40.472;-3.878;2023-06-26T11:49:02;7.07;;;4.37;;
7905;SDS011;13291;40.472;-3.878;2023-06-26T11:51:30;7.93;;;3.80;;
7905;SDS011;13291;40.472;-3.878;2023-06-26T11:54:00;5.30;;;3.80;;
7905;SDS011;13291;40.472;-3.878;2023-06-26T11:56:27;5.17;;;3.93;;
7905;SDS011;13291;40.472;-3.878;2023-06-26T11:58:55;6.47;;;4.50;;
7905;SDS011;13291;40.472;-3.878;2023-06-26T12:01:22;11.90;;;4.80;;
7905;SDS011;13291;40.472;-3.878;2023-06-26T12:03:50;5.60;;;4.10;;
7905;SDS011;13291;40.472;-3.878;2023-06-26T12:06:17;6.90;;;4.17;;
7905;SDS011;13291;40.472;-3.878;2023-06-26T12:08:44;9.40;;;4.53;;
7905;SDS011;13291;40.472;-3.878;2023-06-26T12:11:13;10.00;;;4.60;;
7905;SDS011;13291;40.472;-3.878;2023-06-26T12:13:41;7.93;;;5.10;;
7905;SDS011;13291;40.472;-3.878;2023-06-26T12:16:08;5.87;;;4.37;;
7905;SDS011;13291;40.472;-3.878;2023-06-26T12:18:35;5.60;;;4.70;;
7905;SDS011;13291;40.472;-3.878;2023-06-26T12:21:02;6.37;;;4.57;;
7905;SDS011;13291;40.472;-3.878;2023-06-26T12:23:32;7.77;;;4.20;;
7905;SDS011;13291;40.472;-3.878;2023-06-26T12:28:56;4.97;;;4.47;;
7905;SDS011;13291;40.472;-3.878;2023-06-26T12:31:29;7.60;;;4.33;;
7905;SDS011;13291;40.472;-3.878;2023-06-26T12:33:58;5.77;;;4.87;;
7905;SDS011;13291;40.472;-3.878;2023-06-26T12:36:24;7.30;;;4.80;;
7905;SDS011;13291;40.472;-3.878;2023-06-26T12:38:53;8.87;;;4.43;;
7905;SDS011;13291;40.472;-3.878;2023-06-26T12:41:23;5.70;;;4.73;;
7905;SDS011;13291;40.472;-3.878;2023-06-26T12:43:56;9.03;;;4.53;;
7905;SDS011;13291;40.472;-3.878;2023-06-26T12:46:32;6.20;;;4.50;;
7905;SDS011;13291;40.472;-3.878;2023-06-26T12:49:00;5.00;;;3.97;;
7905;SDS011;13291;40.472;-3.878;2023-06-26T12:51:28;7.27;;;5.20;;
7905;SDS011;13291;40.472;-3.878;2023-06-26T12:53:54;6.10;;;4.60;;
7905;SDS011;13291;40.472;-3.878;2023-06-26T12:56:21;7.80;;;4.37;;
7905;SDS011;13291;40.472;-3.878;2023-06-26T12:58:48;5.00;;;4.20;;
7905;SDS011;13291;40.472;-3.878;2023-06-26T13:01:16;8.43;;;4.80;;
7905;SDS011;13291;40.472;-3.878;2023-06-26T13:03:45;8.23;;;5.50;;
7905;SDS011;13291;40.472;-3.878;2023-06-26T13:06:12;5.93;;;4.63;;
7905;SDS011;13291;40.472;-3.878;2023-06-26T13:08:39;6.43;;;4.40;;
7905;SDS011;13291;40.472;-3.878;2023-06-26T13:11:06;5.07;;;4.10;;
7905;SDS011;13291;40.472;-3.878;2023-06-26T13:13:33;7.30;;;4.53;;
7905;SDS011;13291;40.472;-3.878;2023-06-26T13:16:00;6.10;;;4.50;;
7905;SDS011;13291;40.472;-3.878;2023-06-26T13:18:28;7.50;;;4.20;;
7905;SDS011;13291;40.472;-3.878;2023-06-26T13:20:55;8.50;;;4.33;;
7905;SDS011;13291;40.472;-3.878;2023-06-26T13:23:22;4.50;;;3.93;;
7905;SDS011;13291;40.472;-3.878;2023-06-26T13:25:49;9.60;;;4.13;;
7905;SDS011;13291;40.472;-3.878;2023-06-26T13:28:16;7.17;;;3.90;;
7905;SDS011;13291;40.472;-3.878;2023-06-26T13:30:43;6.83;;;4.10;;
7905;SDS011;13291;40.472;-3.878;2023-06-26T13:33:10;5.80;;;3.47;;
7905;SDS011;13291;40.472;-3.878;2023-06-26T13:35:38;7.27;;;4.30;;
7905;SDS011;13291;40.472;-3.878;2023-06-26T13:38:05;8.10;;;4.23;;
7905;SDS011;13291;40.472;-3.878;2023-06-26T13:40:32;6.87;;;3.87;;
7905;SDS011;13291;40.472;-3.878;2023-06-26T13:42:59;4.60;;;3.83;;
7905;SDS011;13291;40.472;-3.878;2023-06-26T13:45:26;9.67;;;4.33;;
7905;SDS011;13291;40.472;-3.878;2023-06-26T13:47:53;5.10;;;3.90;;
7905;SDS011;13291;40.472;-3.878;2023-06-26T13:50:20;7.30;;;4.03;;
7905;SDS011;13291;40.472;-3.878;2023-06-26T13:52:48;10.40;;;4.50;;
7905;SDS011;13291;40.472;-3.878;2023-06-26T13:55:15;7.03;;;4.53;;
7905;SDS011;13291;40.472;-3.878;2023-06-26T13:57:42;5.40;;;3.63;;
7905;SDS011;13291;40.472;-3.878;2023-06-26T14:00:09;7.40;;;4.10;;
7905;SDS011;13291;40.472;-3.878;2023-06-26T14:02:38;7.30;;;4.07;;
7905;SDS011;13291;40.472;-3.878;2023-06-26T14:05:05;7.10;;;3.77;;
7905;SDS011;13291;40.472;-3.878;2023-06-26T14:07:32;10.40;;;4.57;;
7905;SDS011;13291;40.472;-3.878;2023-06-26T14:10:01;6.43;;;4.43;;
7905;SDS011;13291;40.472;-3.878;2023-06-26T14:12:28;7.60;;;4.80;;
7905;SDS011;13291;40.472;-3.878;2023-06-26T14:14:55;9.67;;;4.40;;
7905;SDS011;13291;40.472;-3.878;2023-06-26T14:17:22;7.97;;;4.57;;
7905;SDS011;13291;40.472;-3.878;2023-06-26T14:19:49;8.70;;;4.13;;
7905;SDS011;13291;40.472;-3.878;2023-06-26T14:22:16;7.03;;;4.10;;
7905;SDS011;13291;40.472;-3.878;2023-06-26T14:24:43;6.07;;;4.30;;
7905;SDS011;13291;40.472;-3.878;2023-06-26T14:27:11;7.33;;;4.00;;
7905;SDS011;13291;40.472;-3.878;2023-06-26T14:29:38;6.63;;;3.63;;
7905;SDS011;13291;40.472;-3.878;2023-06-26T14:32:05;4.87;;;3.70;;
7905;SDS011;13291;40.472;-3.878;2023-06-26T14:34:33;6.60;;;3.70;;
7905;SDS011;13291;40.472;-3.878;2023-06-26T14:36:59;7.13;;;3.33;;
7905;SDS011;13291;40.472;-3.878;2023-06-26T14:39:26;4.37;;;3.40;;
7905;SDS011;13291;40.472;-3.878;2023-06-26T14:41:53;7.67;;;3.37;;
7905;SDS011;13291;40.472;-3.878;2023-06-26T14:44:22;4.00;;;3.10;;
7905;SDS011;13291;40.472;-3.878;2023-06-26T14:46:48;6.50;;;3.50;;
7905;SDS011;13291;40.472;-3.878;2023-06-26T14:49:15;5.50;;;3.80;;
7905;SDS011;13291;40.472;-3.878;2023-06-26T14:51:44;5.67;;;3.70;;
7905;SDS011;13291;40.472;-3.878;2023-06-26T14:54:11;5.07;;;3.80;;